createdAt,value
2018-06-01T00:00:32.114Z,22.89
2018-06-01T00:01:32.249Z,22.64
2018-06-01T00:02:32.400Z,22.48
2018-06-01T00:03:32.543Z,22.36
2018-06-01T00:04:32.681Z,22.22
2018-06-01T00:05:32.829Z,22.25
2018-06-01T00:06:32.967Z,22.19
2018-06-01T00:07:33.116Z,22.18
2018-06-01T00:08:33.263Z,22.12
2018-06-01T00:09:33.417Z,22.19
2018-06-01T00:10:33.562Z,22.25
2018-06-01T00:11:33.703Z,22.31
2018-06-01T00:12:33.849Z,22.31
2018-06-01T00:15:06.245Z,22.49
2018-06-01T00:16:06.383Z,22.44
2018-06-01T00:17:06.525Z,22.52
2018-06-01T00:18:06.680Z,22.52
2018-06-01T00:19:06.819Z,22.55
2018-06-01T00:20:06.959Z,22.56
2018-06-01T00:21:07.103Z,22.55
2018-06-01T00:22:07.267Z,22.59
2018-06-01T00:23:07.405Z,22.64
2018-06-01T00:24:07.571Z,22.66
2018-06-01T00:25:07.753Z,22.52
2018-06-01T00:26:07.853Z,22.31
2018-06-01T00:27:08.016Z,22.15
2018-06-01T00:28:08.172Z,22.12
2018-06-01T00:29:08.310Z,22.07
2018-06-01T00:30:08.459Z,22.01
2018-06-01T00:31:08.620Z,22.12
2018-06-01T00:32:08.758Z,22.19
2018-06-01T00:33:08.900Z,22.21
2018-06-01T00:34:09.043Z,22.22
2018-06-01T00:35:09.194Z,22.23
2018-06-01T00:36:09.370Z,22.21
2018-06-01T00:37:09.501Z,22.15
2018-06-01T00:38:09.647Z,22.09
2018-06-01T00:39:09.795Z,22.22
2018-06-01T00:40:09.944Z,22.30
2018-06-01T00:41:10.083Z,22.27
2018-06-01T00:42:10.226Z,22.30
2018-06-01T00:43:10.370Z,22.36
2018-06-01T00:44:10.517Z,22.38
2018-06-01T00:45:10.659Z,22.52
2018-06-01T00:46:10.863Z,22.43
2018-06-01T00:47:10.932Z,22.25
2018-06-01T00:48:11.072Z,22.16
2018-06-01T00:49:11.221Z,22.15
2018-06-01T00:50:11.361Z,22.21
2018-06-01T00:51:11.505Z,22.18
2018-06-01T00:52:11.832Z,22.22
2018-06-01T00:53:11.723Z,22.21
2018-06-01T00:54:11.869Z,22.16
2018-06-01T00:55:12.016Z,22.12
2018-06-01T00:56:12.159Z,22.07
2018-06-01T00:57:12.323Z,22.12
2018-06-01T00:58:12.459Z,22.12
2018-06-01T00:59:12.599Z,22.15
2018-06-01T01:00:12.777Z,22.15
2018-06-01T01:01:12.920Z,22.09
2018-06-01T01:02:13.054Z,22.06
2018-06-01T01:03:13.200Z,22.09
2018-06-01T01:04:13.364Z,22.12
2018-06-01T01:05:13.499Z,22.18
2018-06-01T01:06:13.644Z,22.15
2018-06-01T01:07:13.787Z,22.27
2018-06-01T01:08:13.977Z,22.13
2018-06-01T01:09:14.127Z,22.15
2018-06-01T01:10:14.274Z,22.18
2018-06-01T01:11:14.419Z,22.25
2018-06-01T01:12:14.567Z,22.18
2018-06-01T01:13:14.705Z,22.22
2018-06-01T01:14:14.843Z,22.22
2018-06-01T01:15:14.990Z,22.23
2018-06-01T01:16:15.148Z,22.21
2018-06-01T01:17:15.282Z,22.19
2018-06-01T01:18:15.422Z,22.25
2018-06-01T01:19:15.564Z,22.22
2018-06-01T01:20:15.724Z,22.23
2018-06-01T01:21:15.946Z,22.33
2018-06-01T01:22:15.966Z,22.27
2018-06-01T01:23:16.167Z,22.22
2018-06-01T01:24:16.230Z,22.25
2018-06-01T01:25:16.376Z,22.27
2018-06-01T01:26:16.514Z,22.31
2018-06-01T01:27:16.666Z,22.23
2018-06-01T01:29:49.545Z,22.11
2018-06-01T01:30:49.689Z,22.12
2018-06-01T01:31:49.831Z,22.03
2018-06-01T01:32:49.996Z,21.93
2018-06-01T01:33:50.126Z,22.00
2018-06-01T01:34:50.279Z,22.00
2018-06-01T01:35:50.414Z,21.97
2018-06-01T01:36:50.572Z,21.81
2018-06-01T01:37:50.705Z,21.74
2018-06-01T01:38:50.880Z,21.78
2018-06-01T01:39:51.021Z,21.75
2018-06-01T01:40:51.194Z,21.69
2018-06-01T01:41:51.313Z,21.66
2018-06-01T01:42:51.448Z,21.59
2018-06-01T01:43:51.590Z,21.45
2018-06-01T01:44:51.734Z,21.29
2018-06-01T01:45:51.872Z,21.32
2018-06-01T01:46:52.011Z,21.13
2018-06-01T01:47:52.160Z,21.13
2018-06-01T01:48:52.302Z,21.08
2018-06-01T01:49:52.444Z,21.05
2018-06-01T01:50:52.593Z,20.97
2018-06-01T01:51:52.737Z,21.16
2018-06-01T01:52:52.876Z,21.23
2018-06-01T01:53:53.025Z,21.34
2018-06-01T01:54:53.163Z,21.34
2018-06-01T01:55:53.305Z,21.26
2018-06-01T01:56:53.449Z,21.29
2018-06-01T01:57:53.589Z,21.40
2018-06-01T01:58:54.216Z,21.43
2018-06-01T01:59:53.879Z,21.35
2018-06-01T02:00:54.022Z,21.43
2018-06-01T02:01:54.185Z,21.41
2018-06-01T02:02:54.327Z,21.43
2018-06-01T02:03:54.470Z,21.47
2018-06-01T02:04:54.614Z,21.45
2018-06-01T02:05:54.760Z,21.47
2018-06-01T02:06:54.900Z,21.47
2018-06-01T02:07:55.038Z,21.51
2018-06-01T02:08:55.180Z,21.55
2018-06-01T02:09:55.318Z,21.62
2018-06-01T02:10:55.466Z,21.66
2018-06-01T02:11:55.607Z,21.80
2018-06-01T02:12:55.748Z,21.75
2018-06-01T02:13:55.900Z,21.75
2018-06-01T02:14:56.046Z,21.75
2018-06-01T02:15:56.187Z,21.77
2018-06-01T02:16:56.343Z,21.75
2018-06-01T02:17:56.489Z,21.78
2018-06-01T02:18:56.626Z,21.82
2018-06-01T02:19:56.793Z,21.78
2018-06-01T02:20:56.931Z,21.80
2018-06-01T02:21:57.101Z,21.80
2018-06-01T02:22:57.228Z,21.78
2018-06-01T02:23:57.404Z,21.82
2018-06-01T02:24:57.523Z,21.82
2018-06-01T02:25:57.683Z,21.85
2018-06-01T02:26:57.826Z,21.82
2018-06-01T02:27:57.970Z,21.77
2018-06-01T02:28:58.118Z,21.81
2018-06-01T02:29:58.259Z,21.81
2018-06-01T02:30:58.403Z,21.77
2018-06-01T02:31:58.553Z,21.62
2018-06-01T02:32:58.696Z,21.65
2018-06-01T02:33:58.837Z,21.45
2018-06-01T02:34:58.993Z,21.43
2018-06-01T02:35:59.132Z,21.34
2018-06-01T02:36:59.277Z,21.30
2018-06-01T02:37:59.450Z,21.28
2018-06-01T02:38:59.587Z,21.29
2018-06-01T02:39:59.732Z,21.32
2018-06-01T02:41:00.620Z,21.29
2018-06-01T02:42:00.048Z,21.37
2018-06-01T02:43:00.186Z,21.32
2018-06-01T02:44:00.399Z,21.38
2018-06-01T02:45:00.414Z,21.37
2018-06-01T02:46:00.595Z,21.43
2018-06-01T02:47:00.727Z,21.32
2018-06-01T02:48:00.878Z,21.53
2018-06-01T02:49:01.004Z,21.48
2018-06-01T02:50:01.154Z,21.51
2018-06-01T02:51:01.300Z,21.45
2018-06-01T02:52:01.434Z,21.59
2018-06-01T02:53:01.573Z,21.71
2018-06-01T02:54:01.720Z,21.63
2018-06-01T02:55:01.857Z,21.71
2018-06-01T02:56:01.999Z,21.71
2018-06-01T02:57:02.139Z,21.71
2018-06-01T02:58:02.292Z,21.69
2018-06-01T02:59:02.425Z,21.71
2018-06-01T03:00:02.574Z,21.59
2018-06-01T03:01:02.719Z,21.59
2018-06-01T03:02:02.861Z,21.66
2018-06-01T03:03:03.004Z,21.65
2018-06-01T03:04:03.146Z,21.67
2018-06-01T03:05:03.293Z,21.74
2018-06-01T03:06:03.543Z,21.66
2018-06-01T03:07:03.649Z,21.74
2018-06-01T03:08:03.759Z,21.65
2018-06-01T03:09:03.776Z,21.66
2018-06-01T03:10:03.919Z,21.59
2018-06-01T03:11:04.059Z,21.73
2018-06-01T03:12:04.208Z,21.66
2018-06-01T03:13:04.342Z,21.60
2018-06-01T03:14:04.485Z,21.69
2018-06-01T03:15:04.636Z,21.65
2018-06-01T03:16:04.787Z,21.66
2018-06-01T03:17:04.932Z,21.66
2018-06-01T03:18:05.073Z,21.66
2018-06-01T03:19:05.220Z,21.73
2018-06-01T03:20:05.350Z,21.74
2018-06-01T03:21:05.501Z,21.78
2018-06-01T03:22:05.645Z,21.81
2018-06-01T03:23:05.806Z,21.85
2018-06-01T03:24:05.942Z,21.84
2018-06-01T03:25:06.085Z,21.80
2018-06-01T03:26:06.232Z,21.90
2018-06-01T03:27:06.447Z,21.82
2018-06-01T03:28:06.535Z,21.81
2018-06-01T03:29:06.678Z,21.85
2018-06-01T03:30:06.822Z,21.85
2018-06-01T03:31:06.986Z,21.85
2018-06-01T03:32:07.123Z,21.80
2018-06-01T03:33:07.264Z,21.71
2018-06-01T03:34:07.425Z,21.67
2018-06-01T03:35:07.564Z,21.69
2018-06-01T03:36:07.711Z,21.75
2018-06-01T03:37:07.856Z,21.74
2018-06-01T03:38:07.999Z,21.80
2018-06-01T03:39:08.133Z,21.85
2018-06-01T03:40:08.279Z,21.73
2018-06-01T03:41:08.424Z,21.85
2018-06-01T03:42:08.572Z,21.81
2018-06-01T03:43:08.704Z,21.80
2018-06-01T03:44:08.845Z,21.85
2018-06-01T03:45:08.989Z,21.88
2018-06-01T03:46:09.165Z,21.85
2018-06-01T03:47:09.305Z,21.94
2018-06-01T03:48:09.442Z,21.96
2018-06-01T03:49:09.587Z,21.94
2018-06-01T03:50:09.756Z,21.88
2018-06-01T03:51:09.881Z,21.96
2018-06-01T03:52:10.031Z,21.82
2018-06-01T03:53:10.198Z,21.88
2018-06-01T03:54:10.337Z,21.93
2018-06-01T03:55:10.474Z,21.90
2018-06-01T03:56:10.614Z,21.96
2018-06-01T03:57:10.785Z,21.98
2018-06-01T03:58:10.952Z,21.91
2018-06-01T03:59:11.100Z,21.90
2018-06-01T04:00:11.249Z,21.96
2018-06-01T04:01:11.402Z,21.93
2018-06-01T04:02:11.541Z,21.93
2018-06-01T04:03:11.685Z,22.04
2018-06-01T04:04:11.825Z,21.97
2018-06-01T04:05:11.968Z,21.93
2018-06-01T04:06:12.112Z,21.90
2018-06-01T04:07:12.260Z,21.88
2018-06-01T04:08:12.393Z,21.85
2018-06-01T04:09:12.541Z,21.84
2018-06-01T04:10:12.685Z,21.80
2018-06-01T04:11:12.831Z,21.66
2018-06-01T04:12:12.973Z,21.74
2018-06-01T04:13:13.131Z,21.53
2018-06-01T04:14:13.274Z,21.48
2018-06-01T04:15:13.419Z,21.56
2018-06-01T04:16:13.561Z,21.60
2018-06-01T04:17:13.702Z,21.67
2018-06-01T04:18:13.846Z,21.58
2018-06-01T04:19:14.873Z,21.63
2018-06-01T04:20:14.183Z,21.55
2018-06-01T04:21:14.328Z,21.44
2018-06-01T04:22:14.472Z,21.41
2018-06-01T04:23:14.616Z,21.43
2018-06-01T04:24:14.764Z,21.38
2018-06-01T04:25:14.899Z,21.38
2018-06-01T04:26:15.042Z,21.43
2018-06-01T04:27:15.182Z,21.51
2018-06-01T04:28:15.330Z,21.55
2018-06-01T04:29:15.477Z,21.59
2018-06-01T04:30:15.621Z,21.67
2018-06-01T04:31:15.790Z,21.65
2018-06-01T04:32:15.934Z,21.67
2018-06-01T04:33:16.076Z,21.66
2018-06-01T04:34:16.293Z,21.60
2018-06-01T04:35:16.304Z,21.77
2018-06-01T04:36:16.449Z,21.75
2018-06-01T04:37:16.588Z,21.80
2018-06-01T04:38:16.744Z,21.75
2018-06-01T04:39:16.887Z,21.73
2018-06-01T04:40:17.028Z,21.78
2018-06-01T04:41:17.203Z,21.78
2018-06-01T04:42:17.385Z,21.77
2018-06-01T04:43:17.541Z,21.66
2018-06-01T04:44:17.669Z,21.71
2018-06-01T04:45:17.840Z,21.80
2018-06-01T04:46:17.990Z,21.78
2018-06-01T04:47:18.130Z,21.78
2018-06-01T04:48:18.353Z,21.90
2018-06-01T04:49:18.479Z,21.75
2018-06-01T04:50:18.550Z,21.93
2018-06-01T04:51:18.695Z,21.81
2018-06-01T04:52:18.837Z,21.88
2018-06-01T04:53:19.005Z,21.84
2018-06-01T04:54:19.217Z,21.85
2018-06-01T04:55:19.227Z,21.90
2018-06-01T04:56:19.370Z,21.90
2018-06-01T04:57:19.536Z,21.90
2018-06-01T04:58:19.690Z,21.93
2018-06-01T04:59:19.848Z,21.97
2018-06-01T05:00:19.991Z,21.97
2018-06-01T05:01:20.184Z,21.88
2018-06-01T05:02:20.325Z,21.81
2018-06-01T05:03:20.467Z,21.88
2018-06-01T05:04:20.605Z,21.88
2018-06-01T05:05:20.757Z,21.84
2018-06-01T05:06:20.895Z,21.78
2018-06-01T05:07:21.037Z,21.84
2018-06-01T05:08:21.182Z,21.90
2018-06-01T05:09:21.319Z,21.82
2018-06-01T05:10:21.460Z,21.88
2018-06-01T05:11:21.607Z,21.97
2018-06-01T05:12:21.749Z,21.94
2018-06-01T05:13:21.934Z,21.77
2018-06-01T05:14:22.089Z,21.73
2018-06-01T05:15:22.229Z,21.44
2018-06-01T05:16:22.388Z,21.50
2018-06-01T05:17:22.524Z,21.47
2018-06-01T05:18:22.678Z,21.58
2018-06-01T05:19:22.820Z,21.59
2018-06-01T05:20:22.955Z,21.62
2018-06-01T05:21:23.093Z,21.67
2018-06-01T05:22:23.238Z,21.69
2018-06-01T05:23:23.383Z,21.74
2018-06-01T05:24:23.527Z,21.71
2018-06-01T05:25:23.747Z,21.73
2018-06-01T05:26:23.758Z,21.78
2018-06-01T05:27:23.902Z,21.84
2018-06-01T05:28:24.049Z,21.81
2018-06-01T05:29:24.191Z,21.74
2018-06-01T05:30:24.329Z,21.90
2018-06-01T05:31:24.476Z,21.82
2018-06-01T05:32:24.620Z,21.91
2018-06-01T05:33:24.767Z,21.82
2018-06-01T05:34:24.908Z,21.66
2018-06-01T05:35:25.085Z,21.67
2018-06-01T05:36:25.194Z,21.47
2018-06-01T05:37:25.336Z,21.43
2018-06-01T05:38:25.477Z,21.43
2018-06-01T05:39:25.622Z,21.37
2018-06-01T05:40:25.765Z,21.35
2018-06-01T05:41:25.908Z,21.20
2018-06-01T05:42:26.049Z,21.10
2018-06-01T05:43:26.187Z,21.10
2018-06-01T05:44:26.351Z,20.95
2018-06-01T05:45:26.471Z,20.86
2018-06-01T05:46:26.615Z,20.77
2018-06-01T05:47:26.755Z,20.74
2018-06-01T05:48:26.932Z,20.71
2018-06-01T05:49:27.072Z,20.74
2018-06-01T05:50:27.213Z,20.60
2018-06-01T05:51:27.357Z,20.50
2018-06-01T05:52:27.517Z,20.63
2018-06-01T05:53:27.660Z,20.63
2018-06-01T05:54:27.847Z,20.61
2018-06-01T05:55:27.942Z,20.61
2018-06-01T05:56:28.113Z,20.56
2018-06-01T05:57:28.252Z,20.52
2018-06-01T05:58:28.394Z,20.52
2018-06-01T05:59:28.539Z,20.60
2018-06-01T06:00:28.711Z,20.64
2018-06-01T06:01:28.847Z,20.63
2018-06-01T06:02:28.987Z,20.67
2018-06-01T06:03:29.125Z,20.74
2018-06-01T06:04:29.305Z,20.83
2018-06-01T06:05:29.424Z,20.82
2018-06-01T06:06:29.565Z,20.79
2018-06-01T06:07:29.711Z,20.85
2018-06-01T06:08:29.864Z,20.95
2018-06-01T06:09:30.047Z,20.85
2018-06-01T06:10:30.188Z,20.92
2018-06-01T06:11:30.334Z,20.97
2018-06-01T06:12:30.563Z,20.88
2018-06-01T06:13:30.635Z,20.89
2018-06-01T06:14:30.762Z,20.95
2018-06-01T06:15:30.912Z,21.03
2018-06-01T06:16:31.082Z,20.98
2018-06-01T06:17:31.214Z,20.92
2018-06-01T06:18:31.352Z,21.03
2018-06-01T06:19:31.496Z,20.98
2018-06-01T06:20:31.671Z,20.92
2018-06-01T06:21:31.869Z,20.88
2018-06-01T06:22:31.885Z,20.88
2018-06-01T06:23:32.021Z,20.95
2018-06-01T06:24:32.169Z,20.89
2018-06-01T06:25:32.312Z,20.90
2018-06-01T06:26:32.457Z,20.98
2018-06-01T06:27:32.592Z,20.86
2018-06-01T06:28:32.741Z,20.88
2018-06-01T06:29:32.877Z,20.77
2018-06-01T06:30:33.020Z,20.67
2018-06-01T06:31:33.182Z,20.56
2018-06-01T06:32:33.304Z,20.48
2018-06-01T06:33:33.452Z,20.46
2018-06-01T06:34:33.596Z,20.63
2018-06-01T06:35:33.733Z,20.70
2018-06-01T06:36:33.911Z,20.52
2018-06-01T06:37:34.051Z,20.44
2018-06-01T06:38:34.205Z,20.44
2018-06-01T06:39:34.447Z,20.37
2018-06-01T06:40:34.458Z,20.48
2018-06-01T06:41:34.597Z,20.50
2018-06-01T06:42:34.737Z,20.39
2018-06-01T06:43:34.880Z,20.48
2018-06-01T06:44:35.024Z,20.55
2018-06-01T06:45:35.164Z,20.50
2018-06-01T06:46:35.306Z,20.56
2018-06-01T06:47:35.439Z,20.65
2018-06-01T06:48:35.579Z,20.68
2018-06-01T06:49:35.738Z,20.48
2018-06-01T06:50:35.877Z,20.50
2018-06-01T06:51:36.032Z,20.46
2018-06-01T06:52:36.181Z,20.39
2018-06-01T06:53:36.325Z,20.39
2018-06-01T06:54:36.520Z,20.37
2018-06-01T06:55:36.660Z,20.36
2018-06-01T06:56:36.827Z,20.50
2018-06-01T06:57:37.020Z,20.34
2018-06-01T06:58:37.165Z,20.44
2018-06-01T06:59:37.296Z,20.42
2018-06-01T07:00:37.472Z,20.41
2018-06-01T07:01:37.608Z,20.50
2018-06-01T07:02:37.768Z,20.52
2018-06-01T07:03:37.892Z,20.70
2018-06-01T07:04:38.060Z,20.64
2018-06-01T07:05:38.197Z,20.64
2018-06-01T07:06:38.340Z,20.65
2018-06-01T07:07:38.485Z,20.61
2018-06-01T07:08:38.644Z,20.65
2018-06-01T07:09:38.780Z,20.53
2018-06-01T07:10:38.935Z,20.41
2018-06-01T07:11:39.078Z,20.36
2018-06-01T07:12:39.275Z,20.48
2018-06-01T07:13:39.403Z,20.30
2018-06-01T07:14:39.551Z,20.29
2018-06-01T07:15:39.686Z,20.25
2018-06-01T07:16:39.861Z,20.19
2018-06-01T07:17:40.007Z,20.15
2018-06-01T07:18:40.146Z,20.05
2018-06-01T07:19:40.286Z,20.11
2018-06-01T07:20:40.459Z,20.04
2018-06-01T07:21:40.598Z,20.19
2018-06-01T07:22:40.740Z,20.12
2018-06-01T07:23:40.884Z,20.17
2018-06-01T07:24:41.067Z,20.14
2018-06-01T07:25:41.181Z,19.99
2018-06-01T07:26:41.324Z,19.97
2018-06-01T07:27:41.516Z,19.89
2018-06-01T07:28:41.627Z,19.96
2018-06-01T07:29:41.762Z,19.97
2018-06-01T07:30:41.907Z,20.04
2018-06-01T07:31:42.047Z,20.07
2018-06-01T07:32:42.185Z,20.22
2018-06-01T07:33:42.330Z,20.19
2018-06-01T07:34:42.470Z,20.29
2018-06-01T07:35:42.616Z,20.36
2018-06-01T07:36:42.751Z,20.29
2018-06-01T07:37:42.895Z,20.42
2018-06-01T07:38:43.048Z,20.34
2018-06-01T07:39:43.175Z,20.33
2018-06-01T07:40:43.318Z,20.37
2018-06-01T07:41:43.475Z,20.39
2018-06-01T07:42:43.605Z,20.49
2018-06-01T07:43:43.743Z,20.52
2018-06-01T07:44:43.989Z,20.49
2018-06-01T07:45:44.020Z,20.52
2018-06-01T07:46:44.159Z,20.42
2018-06-01T07:47:44.301Z,20.39
2018-06-01T07:48:44.448Z,20.46
2018-06-01T07:49:44.589Z,20.49
2018-06-01T07:50:44.730Z,20.49
2018-06-01T07:51:44.873Z,20.49
2018-06-01T07:52:45.020Z,20.50
2018-06-01T07:53:45.166Z,20.36
2018-06-01T07:54:45.317Z,20.42
2018-06-01T07:55:45.451Z,20.34
2018-06-01T07:56:45.612Z,20.36
2018-06-01T07:57:46.439Z,20.36
2018-06-01T07:58:45.853Z,20.36
2018-06-01T07:59:45.997Z,20.36
2018-06-01T08:00:46.141Z,20.39
2018-06-01T08:01:46.282Z,20.29
2018-06-01T08:02:46.421Z,20.42
2018-06-01T08:03:46.559Z,20.39
2018-06-01T08:04:46.705Z,20.44
2018-06-01T08:05:46.843Z,20.42
2018-06-01T08:06:46.992Z,20.39
2018-06-01T08:07:47.151Z,20.42
2018-06-01T08:08:47.287Z,20.49
2018-06-01T08:09:47.429Z,20.49
2018-06-01T08:10:47.561Z,20.49
2018-06-01T08:11:47.718Z,20.64
2018-06-01T08:12:47.861Z,20.63
2018-06-01T08:13:48.009Z,20.71
2018-06-01T08:14:48.225Z,20.71
2018-06-01T08:15:48.309Z,20.77
2018-06-01T08:16:48.443Z,20.85
2018-06-01T08:17:48.583Z,20.68
2018-06-01T08:18:48.724Z,20.74
2018-06-01T08:19:48.879Z,20.86
2018-06-01T08:20:49.023Z,20.85
2018-06-01T08:21:49.160Z,20.89
2018-06-01T08:22:49.321Z,20.92
2018-06-01T08:23:49.466Z,20.95
2018-06-01T08:24:49.634Z,21.04
2018-06-01T08:25:49.773Z,21.01
2018-06-01T08:26:49.914Z,21.00
2018-06-01T08:27:50.050Z,21.04
2018-06-01T08:28:50.211Z,20.95
2018-06-01T08:29:50.352Z,21.04
2018-06-01T08:30:50.496Z,21.05
2018-06-01T08:31:50.651Z,21.03
2018-06-01T08:32:50.815Z,21.03
2018-06-01T08:33:50.952Z,21.05
2018-06-01T08:34:51.099Z,21.05
2018-06-01T08:35:51.235Z,20.97
2018-06-01T08:36:51.402Z,20.92
2018-06-01T08:37:51.556Z,21.04
2018-06-01T08:38:51.696Z,21.03
2018-06-01T08:39:51.847Z,21.16
2018-06-01T08:40:52.042Z,21.05
2018-06-01T08:41:52.177Z,21.07
2018-06-01T08:42:52.328Z,21.01
2018-06-01T08:43:52.475Z,21.18
2018-06-01T08:44:52.613Z,21.07
2018-06-01T08:45:52.755Z,21.16
2018-06-01T08:46:52.904Z,21.16
2018-06-01T08:47:53.058Z,21.10
2018-06-01T08:48:53.196Z,21.18
2018-06-01T08:49:53.377Z,21.18
2018-06-01T08:50:53.541Z,21.11
2018-06-01T08:51:53.671Z,21.16
2018-06-01T08:52:53.821Z,21.16
2018-06-01T08:53:53.975Z,21.25
2018-06-01T08:54:54.980Z,21.23
2018-06-01T08:55:54.265Z,21.29
2018-06-01T08:56:54.408Z,21.23
2018-06-01T08:57:54.549Z,21.22
2018-06-01T08:58:54.705Z,21.18
2018-06-01T08:59:54.834Z,21.18
2018-06-01T09:00:54.975Z,21.11
2018-06-01T09:01:55.112Z,21.14
2018-06-01T09:02:55.253Z,21.26
2018-06-01T09:03:55.394Z,21.25
2018-06-01T09:04:55.538Z,21.32
2018-06-01T09:05:55.690Z,21.35
2018-06-01T09:06:55.826Z,21.32
2018-06-01T09:07:55.978Z,21.30
2018-06-01T09:08:56.120Z,21.41
2018-06-01T09:09:56.262Z,21.32
2018-06-01T09:10:56.400Z,21.35
2018-06-01T09:11:56.540Z,21.38
2018-06-01T09:12:56.683Z,21.37
2018-06-01T09:13:56.829Z,21.41
2018-06-01T09:14:56.971Z,21.47
2018-06-01T09:15:57.114Z,21.50
2018-06-01T09:16:57.267Z,21.45
2018-06-01T09:17:57.399Z,21.51
2018-06-01T09:18:57.558Z,21.45
2018-06-01T09:19:57.703Z,21.41
2018-06-01T09:20:57.843Z,21.47
2018-06-01T09:21:57.981Z,21.45
2018-06-01T09:22:58.115Z,21.50
2018-06-01T09:23:58.277Z,21.55
2018-06-01T09:24:58.430Z,21.66
2018-06-01T09:25:58.573Z,21.60
2018-06-01T09:26:58.714Z,21.55
2018-06-01T09:27:58.858Z,21.66
2018-06-01T09:28:59.015Z,21.60
2018-06-01T09:29:59.159Z,21.59
2018-06-01T09:30:59.306Z,21.56
2018-06-01T09:31:59.441Z,21.48
2018-06-01T09:32:59.589Z,21.63
2018-06-01T09:33:59.756Z,21.63
2018-06-01T09:34:59.871Z,21.56
2018-06-01T09:36:00.015Z,21.59
2018-06-01T09:37:00.154Z,21.65
2018-06-01T09:38:00.316Z,21.44
2018-06-01T09:39:00.456Z,21.53
2018-06-01T09:40:00.598Z,21.56
2018-06-01T09:41:00.755Z,21.55
2018-06-01T09:42:00.913Z,21.67
2018-06-01T09:43:01.048Z,21.69
2018-06-01T09:44:01.189Z,21.67
2018-06-01T09:45:01.329Z,21.80
2018-06-01T09:46:01.480Z,21.77
2018-06-01T09:47:01.618Z,21.75
2018-06-01T09:48:01.761Z,21.91
2018-06-01T09:49:01.901Z,21.85
2018-06-01T09:50:02.066Z,21.80
2018-06-01T09:51:02.208Z,21.62
2018-06-01T09:52:02.384Z,21.73
2018-06-01T09:53:02.509Z,21.78
2018-06-01T09:54:02.720Z,21.66
2018-06-01T09:55:02.818Z,21.67
2018-06-01T09:56:02.957Z,21.65
2018-06-01T09:57:03.104Z,21.78
2018-06-01T09:58:03.261Z,21.78
2018-06-01T09:59:03.399Z,21.81
2018-06-01T10:00:03.558Z,22.03
2018-06-01T10:01:03.695Z,21.94
2018-06-01T10:02:03.836Z,21.91
2018-06-01T10:03:03.985Z,21.90
2018-06-01T10:04:04.133Z,21.96
2018-06-01T10:05:04.285Z,21.81
2018-06-01T10:06:04.505Z,21.85
2018-06-01T10:07:04.592Z,21.90
2018-06-01T10:08:04.734Z,21.88
2018-06-01T10:09:04.878Z,21.96
2018-06-01T10:10:05.028Z,21.84
2018-06-01T10:11:05.163Z,21.90
2018-06-01T10:12:05.336Z,21.91
2018-06-01T10:13:05.480Z,21.97
2018-06-01T10:14:05.640Z,21.91
2018-06-01T10:15:05.873Z,21.96
2018-06-01T10:16:05.889Z,22.00
2018-06-01T10:17:06.039Z,21.85
2018-06-01T10:18:06.172Z,21.93
2018-06-01T10:19:06.322Z,21.74
2018-06-01T10:20:06.505Z,21.80
2018-06-01T10:21:06.616Z,21.78
2018-06-01T10:22:06.819Z,21.81
2018-06-01T10:23:06.845Z,21.78
2018-06-01T10:24:07.004Z,21.77
2018-06-01T10:25:07.139Z,21.91
2018-06-01T10:26:07.282Z,21.82
2018-06-01T10:27:07.420Z,21.81
2018-06-01T10:28:07.566Z,21.85
2018-06-01T10:29:07.702Z,21.94
2018-06-01T10:30:07.892Z,21.84
2018-06-01T10:31:08.035Z,21.93
2018-06-01T10:32:08.183Z,21.94
2018-06-01T10:33:08.324Z,22.03
2018-06-01T10:34:08.463Z,22.11
2018-06-01T10:35:08.604Z,22.15
2018-06-01T10:36:08.748Z,22.16
2018-06-01T10:37:08.887Z,22.28
2018-06-01T10:38:09.031Z,22.19
2018-06-01T10:39:09.170Z,22.19
2018-06-01T10:40:09.306Z,22.22
2018-06-01T10:41:09.451Z,22.22
2018-06-01T10:42:09.601Z,22.27
2018-06-01T10:43:09.743Z,22.40
2018-06-01T10:44:09.885Z,22.36
2018-06-01T10:45:10.134Z,22.49
2018-06-01T10:46:10.108Z,22.53
2018-06-01T10:47:10.243Z,22.55
2018-06-01T10:48:10.387Z,22.48
2018-06-01T10:49:10.533Z,22.51
2018-06-01T10:50:10.675Z,22.55
2018-06-01T10:51:10.816Z,22.73
2018-06-01T10:52:10.954Z,22.95
2018-06-01T10:53:11.095Z,23.10
2018-06-01T10:54:11.236Z,23.04
2018-06-01T10:55:11.421Z,23.17
2018-06-01T10:56:11.518Z,23.22
2018-06-01T10:57:11.663Z,23.26
2018-06-01T10:58:11.805Z,23.39
2018-06-01T10:59:11.941Z,23.25
2018-06-01T11:00:12.082Z,23.31
2018-06-01T11:01:12.223Z,23.25
2018-06-01T11:02:12.372Z,23.18
2018-06-01T11:03:12.515Z,23.04
2018-06-01T11:04:12.659Z,23.13
2018-06-01T11:05:12.800Z,23.15
2018-06-01T11:06:12.956Z,23.34
2018-06-01T11:07:13.095Z,23.34
2018-06-01T11:08:13.248Z,23.23
2018-06-01T11:09:13.415Z,23.25
2018-06-01T11:10:13.552Z,23.25
2018-06-01T11:11:13.696Z,23.28
2018-06-01T11:12:13.838Z,23.28
2018-06-01T11:13:14.015Z,23.21
2018-06-01T11:14:14.152Z,23.31
2018-06-01T11:15:14.290Z,23.29
2018-06-01T11:16:14.459Z,23.31
2018-06-01T11:17:14.597Z,23.29
2018-06-01T11:18:14.742Z,23.28
2018-06-01T11:19:14.883Z,23.21
2018-06-01T11:20:15.053Z,23.28
2018-06-01T11:21:15.194Z,23.39
2018-06-01T11:22:15.336Z,23.41
2018-06-01T11:23:15.542Z,23.52
2018-06-01T11:24:15.627Z,23.52
2018-06-01T11:25:15.780Z,23.55
2018-06-01T11:26:15.932Z,23.52
2018-06-01T11:27:16.085Z,23.55
2018-06-01T11:28:16.221Z,23.54
2018-06-01T11:29:16.389Z,23.45
2018-06-01T11:30:16.530Z,23.51
2018-06-01T11:31:16.668Z,23.52
2018-06-01T11:32:16.841Z,23.52
2018-06-01T11:33:16.950Z,23.56
2018-06-01T11:34:17.093Z,23.69
2018-06-01T11:35:17.235Z,23.81
2018-06-01T11:36:17.378Z,23.89
2018-06-01T11:37:17.520Z,23.94
2018-06-01T11:38:17.666Z,23.91
2018-06-01T11:39:17.836Z,24.00
2018-06-01T11:40:18.001Z,24.04
2018-06-01T11:41:18.144Z,24.08
2018-06-01T11:42:18.284Z,23.97
2018-06-01T11:43:18.456Z,23.94
2018-06-01T11:44:18.597Z,23.86
2018-06-01T11:45:18.738Z,23.78
2018-06-01T11:46:18.880Z,23.79
2018-06-01T11:47:19.058Z,23.81
2018-06-01T11:48:19.206Z,23.94
2018-06-01T11:49:19.346Z,23.96
2018-06-01T11:50:19.492Z,24.28
2018-06-01T11:51:19.673Z,24.41
2018-06-01T11:52:19.796Z,24.71
2018-06-01T11:53:19.940Z,24.76
2018-06-01T11:54:20.083Z,24.84
2018-06-01T11:55:20.273Z,24.97
2018-06-01T11:56:20.403Z,24.93
2018-06-01T11:57:20.615Z,24.99
2018-06-01T11:58:20.693Z,24.86
2018-06-01T11:59:20.843Z,24.96
2018-06-01T12:00:20.990Z,25.01
2018-06-01T12:01:21.137Z,25.08
2018-06-01T12:02:21.281Z,25.18
2018-06-01T12:03:21.431Z,25.34
2018-06-01T12:04:21.640Z,25.58
2018-06-01T12:05:21.656Z,25.40
2018-06-01T12:06:21.800Z,25.36
2018-06-01T12:07:21.946Z,25.37
2018-06-01T12:08:22.104Z,25.33
2018-06-01T12:09:22.242Z,25.36
2018-06-01T12:10:22.381Z,25.41
2018-06-01T12:11:22.529Z,25.52
2018-06-01T12:12:22.670Z,25.51
2018-06-01T12:13:22.813Z,25.48
2018-06-01T12:14:22.951Z,25.53
2018-06-01T12:15:23.097Z,25.58
2018-06-01T12:16:23.247Z,25.67
2018-06-01T12:17:23.389Z,25.73
2018-06-01T12:18:23.530Z,25.73
2018-06-01T12:19:23.677Z,25.55
2018-06-01T12:20:23.850Z,25.30
2018-06-01T12:21:23.968Z,25.19
2018-06-01T12:22:24.109Z,25.04
2018-06-01T12:23:24.257Z,24.96
2018-06-01T12:24:24.406Z,24.85
2018-06-01T12:25:24.543Z,24.82
2018-06-01T12:26:24.691Z,24.84
2018-06-01T12:27:24.834Z,24.86
2018-06-01T12:28:24.987Z,25.08
2018-06-01T12:29:25.143Z,25.19
2018-06-01T12:30:25.272Z,25.16
2018-06-01T12:31:25.418Z,25.22
2018-06-01T12:32:25.563Z,25.03
2018-06-01T12:33:25.705Z,24.96
2018-06-01T12:34:25.882Z,24.97
2018-06-01T12:35:26.019Z,24.81
2018-06-01T12:36:26.166Z,24.63
2018-06-01T12:37:26.375Z,24.45
2018-06-01T12:38:26.391Z,24.48
2018-06-01T12:39:26.531Z,24.41
2018-06-01T12:40:26.675Z,24.34
2018-06-01T12:41:26.836Z,24.37
2018-06-01T12:42:26.976Z,24.34
2018-06-01T12:43:27.117Z,24.23
2018-06-01T12:44:27.268Z,24.18
2018-06-01T12:45:27.426Z,24.16
2018-06-01T12:46:27.567Z,24.11
2018-06-01T12:47:27.720Z,23.97
2018-06-01T12:48:27.861Z,23.92
2018-06-01T12:49:28.050Z,23.94
2018-06-01T12:50:28.195Z,23.96
2018-06-01T12:51:28.347Z,24.08
2018-06-01T12:52:28.536Z,24.11
2018-06-01T12:53:28.709Z,24.26
2018-06-01T12:54:28.858Z,24.33
2018-06-01T12:55:29.011Z,24.28
2018-06-01T12:56:29.166Z,24.34
2018-06-01T12:57:29.314Z,24.41